createdAt,value
2022-11-02T00:03:00.101Z,96266.00
2022-11-02T00:08:28.037Z,96253.00
2022-11-02T00:13:56.576Z,96257.00
2022-11-02T00:19:24.432Z,96261.00
2022-11-02T00:25:06.868Z,96264.00
2022-11-02T00:30:34.756Z,96267.00
2022-11-02T00:36:02.828Z,96270.00
2022-11-02T00:41:41.463Z,96274.00
2022-11-02T00:47:11.759Z,96269.00
2022-11-02T00:52:40.568Z,96272.00
2022-11-02T00:58:24.116Z,96280.00
2022-11-02T01:03:52.350Z,96274.00
2022-11-02T01:09:21.776Z,96268.00
2022-11-02T01:14:53.498Z,96279.00
2022-11-02T01:20:21.554Z,96278.00
2022-11-02T01:25:49.329Z,96286.00
2022-11-02T01:31:17.151Z,96282.00
2022-11-02T01:36:49.304Z,96289.00
2022-11-02T01:42:24.787Z,96284.00
2022-11-02T01:47:52.697Z,96289.00
2022-11-02T01:53:20.912Z,96281.00
2022-11-02T01:59:04.142Z,96290.00
2022-11-02T02:04:33.445Z,96290.00
2022-11-02T02:10:01.879Z,96291.00
2022-11-02T02:16:03.395Z,96294.00
2022-11-02T02:22:41.692Z,96283.00
2022-11-02T02:28:41.328Z,96289.00
2022-11-02T02:34:27.463Z,96290.00
2022-11-02T02:40:22.600Z,96296.00
2022-11-02T02:46:03.621Z,96308.00
2022-11-02T02:51:33.673Z,96303.00
2022-11-02T02:57:08.944Z,96304.00
2022-11-02T03:02:40.322Z,96311.00
2022-11-02T03:08:16.334Z,96315.00
2022-11-02T03:13:44.927Z,96321.00
2022-11-02T03:19:17.216Z,96317.00
2022-11-02T03:25:08.632Z,96336.00
2022-11-02T03:30:49.985Z,96330.00
2022-11-02T03:36:33.826Z,96333.00
2022-11-02T03:42:04.753Z,96348.00
2022-11-02T03:47:37.836Z,96355.00
2022-11-02T03:53:41.567Z,96361.00
2022-11-02T03:59:09.797Z,96352.00
2022-11-02T04:04:52.770Z,96368.00
2022-11-02T04:10:24.517Z,96366.00
2022-11-02T04:15:52.425Z,96378.00
2022-11-02T04:21:20.324Z,96370.00
2022-11-02T04:26:48.600Z,96373.00
2022-11-02T04:32:37.269Z,96372.00
2022-11-02T04:38:26.156Z,96363.00
2022-11-02T04:43:56.028Z,96359.00
2022-11-02T04:49:24.640Z,96353.00
2022-11-02T04:54:53.900Z,96351.00
2022-11-02T05:00:22.867Z,96345.00
2022-11-02T05:05:55.751Z,96350.00
2022-11-02T05:11:24.952Z,96348.00
2022-11-02T05:16:53.672Z,96360.00
2022-11-02T05:22:21.518Z,96361.00
2022-11-02T05:27:49.548Z,96356.00
2022-11-02T05:33:20.425Z,96358.00
2022-11-02T05:38:52.824Z,96367.00
2022-11-02T05:44:21.445Z,96362.00
2022-11-02T05:49:49.480Z,96353.00
2022-11-02T05:55:17.281Z,96359.00
2022-11-02T06:00:45.219Z,96360.00
2022-11-02T06:06:13.000Z,96362.00
2022-11-02T06:11:40.853Z,96385.00
2022-11-02T06:17:08.785Z,96392.00
2022-11-02T06:22:41.680Z,96389.00
2022-11-02T06:28:09.434Z,96398.00
2022-11-02T06:33:37.354Z,96398.00
2022-11-02T06:39:05.111Z,96399.00
2022-11-02T06:44:33.334Z,96399.00
2022-11-02T06:50:01.480Z,96424.00
2022-11-02T06:55:30.247Z,96420.00
2022-11-02T07:01:05.443Z,96426.00
2022-11-02T07:06:35.775Z,96430.00
2022-11-02T07:12:03.901Z,96441.00
2022-11-02T07:17:32.407Z,96434.00
2022-11-02T07:23:02.308Z,96434.00
2022-11-02T07:28:30.279Z,96440.00
2022-11-02T07:33:58.079Z,96436.00
2022-11-02T07:39:26.293Z,96434.00
2022-11-02T07:44:53.995Z,96431.00
2022-11-02T07:50:25.035Z,96439.00
2022-11-02T07:55:52.974Z,96442.00
2022-11-02T08:01:20.728Z,96447.00
2022-11-02T08:06:48.604Z,96460.00
2022-11-02T08:12:16.425Z,96454.00
2022-11-02T08:17:44.351Z,96465.00
2022-11-02T08:23:12.995Z,96465.00
2022-11-02T08:28:42.071Z,96466.00
2022-11-02T08:34:12.057Z,96463.00
2022-11-02T08:39:40.058Z,96461.00
2022-11-02T08:45:08.624Z,96463.00
2022-11-02T08:50:36.624Z,96462.00
2022-11-02T08:56:04.744Z,96455.00
2022-11-02T09:01:32.938Z,96464.00
2022-11-02T09:07:00.789Z,96469.00
2022-11-02T09:12:28.629Z,96464.00
2022-11-02T09:17:56.398Z,96469.00
2022-11-02T09:23:24.676Z,96461.00
2022-11-02T09:28:52.471Z,96465.00
2022-11-02T09:34:20.343Z,96478.00
2022-11-02T09:39:48.200Z,96488.00
2022-11-02T09:45:18.885Z,96483.00
2022-11-02T09:50:53.476Z,96489.00
2022-11-02T09:56:23.687Z,96494.00
2022-11-02T10:02:16.233Z,96508.00
2022-11-02T10:08:02.994Z,96497.00
2022-11-02T10:13:48.228Z,96501.00
2022-11-02T10:19:22.254Z,96507.00
2022-11-02T10:24:53.679Z,96502.00
2022-11-02T10:30:22.448Z,96501.00
2022-11-02T10:42:03.776Z,96508.00
2022-11-02T10:47:41.467Z,96511.00
2022-11-02T10:59:16.545Z,96509.00
2022-11-02T11:04:45.380Z,96508.00
2022-11-02T11:10:16.451Z,96505.00
2022-11-02T11:15:51.774Z,96504.00
2022-11-02T11:21:19.565Z,96496.00
2022-11-02T11:27:05.902Z,96493.00
2022-11-02T11:32:35.341Z,96480.00
2022-11-02T11:38:12.559Z,96486.00
2022-11-02T11:43:41.093Z,96487.00
2022-11-02T11:55:32.090Z,96485.00
2022-11-02T12:01:12.438Z,96477.00
2022-11-02T12:07:20.719Z,96477.00
2022-11-02T12:13:34.670Z,96489.00
2022-11-02T12:19:08.212Z,96478.00
2022-11-02T12:25:05.111Z,96483.00
2022-11-02T12:31:25.670Z,96485.00
2022-11-02T12:37:40.554Z,96476.00
2022-11-02T12:43:32.959Z,96472.00
2022-11-02T12:49:19.188Z,96459.00
2022-11-02T12:54:55.531Z,96462.00
2022-11-02T13:00:24.220Z,96458.00
2022-11-02T13:06:00.958Z,96447.00
2022-11-02T13:11:39.358Z,96443.00
2022-11-02T13:17:29.010Z,96439.00
2022-11-02T13:29:27.229Z,96444.00
2022-11-02T13:34:57.236Z,96441.00
2022-11-02T13:40:33.310Z,96445.00
2022-11-02T13:46:06.914Z,96434.00
2022-11-02T13:52:02.006Z,96432.00
2022-11-02T13:57:47.702Z,96434.00
2022-11-02T14:03:28.283Z,96434.00
2022-11-02T14:09:05.313Z,96435.00
2022-11-02T14:14:33.238Z,96437.00
2022-11-02T14:20:04.879Z,96428.00
2022-11-02T14:25:54.707Z,96438.00
2022-11-02T14:31:40.405Z,96431.00
2022-11-02T14:37:41.408Z,96433.00
2022-11-02T14:43:33.229Z,96433.00
2022-11-02T14:49:02.553Z,96428.00
2022-11-02T14:54:38.056Z,96423.00
2022-11-02T15:00:17.938Z,96419.00
2022-11-02T15:05:46.224Z,96408.00
2022-11-02T15:11:58.164Z,96417.00
2022-11-02T15:17:25.928Z,96412.00
2022-11-02T15:23:47.302Z,96413.00
2022-11-02T15:29:48.918Z,96397.00
2022-11-02T15:35:23.882Z,96407.00
2022-11-02T15:41:06.134Z,96400.00
2022-11-02T15:46:40.301Z,96406.00
2022-11-02T15:53:22.182Z,96400.00
2022-11-02T15:59:44.746Z,96405.00
2022-11-02T16:05:27.987Z,96401.00
2022-11-02T16:11:13.382Z,96405.00
2022-11-02T16:16:50.984Z,96403.00
2022-11-02T16:22:26.259Z,96404.00
2022-11-02T16:27:54.159Z,96402.00
2022-11-02T16:33:21.998Z,96394.00
2022-11-02T16:39:16.804Z,96393.00
2022-11-02T16:45:01.468Z,96398.00
2022-11-02T16:50:29.822Z,96396.00
2022-11-02T16:56:02.806Z,96403.00
2022-11-02T17:01:38.825Z,96397.00
2022-11-02T17:07:23.493Z,96410.00
2022-11-02T17:12:51.588Z,96405.00
2022-11-02T17:18:22.519Z,96404.00
2022-11-02T17:23:51.202Z,96405.00
2022-11-02T17:29:25.066Z,96404.00
2022-11-02T17:34:58.714Z,96408.00
2022-11-02T17:40:26.721Z,96403.00
2022-11-02T17:45:59.451Z,96396.00
2022-11-02T17:51:27.415Z,96402.00
2022-11-02T17:56:55.385Z,96402.00
2022-11-02T18:02:23.331Z,96407.00
2022-11-02T18:07:53.630Z,96395.00
2022-11-02T18:13:23.979Z,96399.00
2022-11-02T18:18:51.833Z,96395.00
2022-11-02T18:24:19.660Z,96393.00
2022-11-02T18:29:50.029Z,96385.00
2022-11-02T18:35:20.397Z,96377.00
2022-11-02T18:40:48.292Z,96363.00
2022-11-02T18:46:16.176Z,96351.00
2022-11-02T18:51:45.749Z,96337.00
2022-11-02T18:57:13.553Z,96333.00
2022-11-02T19:02:41.764Z,96318.00
2022-11-02T19:08:29.043Z,96322.00
2022-11-02T19:14:00.012Z,96321.00
2022-11-02T19:19:38.852Z,96311.00
2022-11-02T19:25:07.901Z,96303.00
2022-11-02T19:30:38.419Z,96309.00
2022-11-02T19:36:09.244Z,96307.00
2022-11-02T19:41:44.633Z,96295.00
2022-11-02T19:47:16.307Z,96290.00
2022-11-02T19:52:48.495Z,96290.00
2022-11-02T19:58:22.622Z,96277.00
2022-11-02T20:03:52.257Z,96275.00
2022-11-02T20:09:25.316Z,96270.00
2022-11-02T20:15:02.923Z,96263.00
2022-11-02T20:20:31.584Z,96259.00
2022-11-02T20:26:05.308Z,96256.00
2022-11-02T20:31:40.566Z,96253.00
2022-11-02T20:37:12.876Z,96259.00
2022-11-02T20:42:41.973Z,96259.00
2022-11-02T20:48:13.104Z,96240.00
2022-11-02T20:53:54.330Z,96238.00
2022-11-02T20:59:22.971Z,96241.00
2022-11-02T21:04:54.712Z,96233.00
2022-11-02T21:10:25.755Z,96231.00
2022-11-02T21:15:54.420Z,96229.00
2022-11-02T21:21:22.531Z,96237.00
2022-11-02T21:26:50.371Z,96236.00
2022-11-02T21:32:18.153Z,96235.00
2022-11-02T21:37:46.021Z,96216.00
2022-11-02T21:43:13.831Z,96216.00
2022-11-02T21:48:41.616Z,96215.00
2022-11-02T21:54:09.538Z,96215.00
2022-11-02T21:59:37.319Z,96206.00
2022-11-02T22:05:05.467Z,96205.00
2022-11-02T22:10:33.199Z,96210.00
2022-11-02T22:16:12.629Z,96208.00
2022-11-02T22:21:44.024Z,96194.00
2022-11-02T22:27:12.033Z,96197.00
2022-11-02T22:32:39.798Z,96192.00
2022-11-02T22:38:27.283Z,96177.00
2022-11-02T22:43:57.052Z,96178.00
2022-11-02T22:49:26.258Z,96170.00
2022-11-02T22:54:54.016Z,96177.00
2022-11-02T23:00:21.900Z,96172.00
2022-11-02T23:05:49.907Z,96169.00
2022-11-02T23:11:24.246Z,96164.00
2022-11-02T23:16:52.137Z,96145.00
2022-11-02T23:22:32.160Z,96145.00
2022-11-02T23:28:18.561Z,96147.00
2022-11-02T23:33:46.359Z,96136.00
2022-11-02T23:39:32.649Z,96133.00
2022-11-02T23:45:00.532Z,96128.00
2022-11-02T23:50:51.134Z,96130.00
2022-11-02T23:56:37.273Z,96125.00
